sensor_id;sensor_type;location;lat;lon;timestamp;P1;durP1;ratioP1;P2;durP2;ratioP2
20170;SDS011;10245;51.344;6.620;2023-03-14T00:00:12;7.60;;;1.90;;
20170;SDS011;10245;51.344;6.620;2023-03-14T00:02:37;7.88;;;2.40;;
20170;SDS011;10245;51.344;6.620;2023-03-14T00:05:02;7.40;;;2.22;;
20170;SDS011;10245;51.344;6.620;2023-03-14T00:07:28;8.68;;;2.05;;
20170;SDS011;10245;51.344;6.620;2023-03-14T00:09:55;6.68;;;2.40;;
20170;SDS011;10245;51.344;6.620;2023-03-14T00:12:18;11.13;;;2.10;;
20170;SDS011;10245;51.344;6.620;2023-03-14T00:14:41;5.30;;;2.05;;
20170;SDS011;10245;51.344;6.620;2023-03-14T00:17:05;9.02;;;2.30;;
20170;SDS011;10245;51.344;6.620;2023-03-14T00:19:28;18.85;;;3.00;;
20170;SDS011;10245;51.344;6.620;2023-03-14T00:21:53;9.35;;;3.03;;
20170;SDS011;10245;51.344;6.620;2023-03-14T00:24:16;13.52;;;2.65;;
20170;SDS011;10245;51.344;6.620;2023-03-14T00:26:39;7.53;;;2.15;;
20170;SDS011;10245;51.344;6.620;2023-03-14T00:29:03;8.90;;;2.45;;
20170;SDS011;10245;51.344;6.620;2023-03-14T00:31:26;7.13;;;2.00;;
20170;SDS011;10245;51.344;6.620;2023-03-14T00:33:50;8.45;;;2.17;;
20170;SDS011;10245;51.344;6.620;2023-03-14T00:36:15;8.73;;;2.20;;
20170;SDS011;10245;51.344;6.620;2023-03-14T00:38:43;5.93;;;1.92;;
20170;SDS011;10245;51.344;6.620;2023-03-14T00:41:09;5.05;;;1.65;;
20170;SDS011;10245;51.344;6.620;2023-03-14T00:43:35;6.97;;;1.92;;
20170;SDS011;10245;51.344;6.620;2023-03-14T00:45:58;4.63;;;1.63;;
20170;SDS011;10245;51.344;6.620;2023-03-14T00:48:23;8.85;;;1.85;;
20170;SDS011;10245;51.344;6.620;2023-03-14T00:50:46;6.20;;;1.60;;
20170;SDS011;10245;51.344;6.620;2023-03-14T00:53:10;7.25;;;1.60;;
20170;SDS011;10245;51.344;6.620;2023-03-14T00:55:37;4.53;;;1.48;;
20170;SDS011;10245;51.344;6.620;2023-03-14T00:58:01;6.10;;;1.77;;
20170;SDS011;10245;51.344;6.620;2023-03-14T01:00:24;7.18;;;2.08;;
20170;SDS011;10245;51.344;6.620;2023-03-14T01:02:48;9.35;;;1.73;;
20170;SDS011;10245;51.344;6.620;2023-03-14T01:05:11;6.75;;;1.95;;
20170;SDS011;10245;51.344;6.620;2023-03-14T01:07:36;8.90;;;1.90;;
20170;SDS011;10245;51.344;6.620;2023-03-14T01:10:00;5.55;;;1.60;;
20170;SDS011;10245;51.344;6.620;2023-03-14T01:12:25;4.45;;;1.38;;
20170;SDS011;10245;51.344;6.620;2023-03-14T01:14:50;7.15;;;1.75;;
20170;SDS011;10245;51.344;6.620;2023-03-14T01:17:13;3.70;;;1.65;;
20170;SDS011;10245;51.344;6.620;2023-03-14T01:19:36;4.97;;;1.98;;
20170;SDS011;10245;51.344;6.620;2023-03-14T01:22:00;7.00;;;1.88;;
20170;SDS011;10245;51.344;6.620;2023-03-14T01:24:23;9.25;;;1.70;;
20170;SDS011;10245;51.344;6.620;2023-03-14T01:26:47;9.70;;;1.98;;
20170;SDS011;10245;51.344;6.620;2023-03-14T01:29:11;8.13;;;1.70;;
20170;SDS011;10245;51.344;6.620;2023-03-14T01:31:35;4.80;;;1.55;;
20170;SDS011;10245;51.344;6.620;2023-03-14T01:33:59;3.88;;;1.30;;
20170;SDS011;10245;51.344;6.620;2023-03-14T01:36:22;8.20;;;1.90;;
20170;SDS011;10245;51.344;6.620;2023-03-14T01:38:45;5.40;;;1.30;;
20170;SDS011;10245;51.344;6.620;2023-03-14T01:41:12;5.90;;;1.60;;
20170;SDS011;10245;51.344;6.620;2023-03-14T01:43:38;7.75;;;1.77;;
20170;SDS011;10245;51.344;6.620;2023-03-14T01:49:19;4.03;;;1.33;;
20170;SDS011;10245;51.344;6.620;2023-03-14T01:52:06;5.75;;;2.20;;
20170;SDS011;10245;51.344;6.620;2023-03-14T01:54:34;6.90;;;1.67;;
20170;SDS011;10245;51.344;6.620;2023-03-14T01:57:03;7.30;;;1.60;;
20170;SDS011;10245;51.344;6.620;2023-03-14T01:59:32;5.97;;;1.83;;
20170;SDS011;10245;51.344;6.620;2023-03-14T02:01:58;5.50;;;2.05;;
20170;SDS011;10245;51.344;6.620;2023-03-14T02:04:26;6.43;;;1.58;;
20170;SDS011;10245;51.344;6.620;2023-03-14T02:06:57;5.32;;;1.70;;
20170;SDS011;10245;51.344;6.620;2023-03-14T02:09:31;7.68;;;1.92;;
20170;SDS011;10245;51.344;6.620;2023-03-14T02:11:55;5.63;;;1.50;;
20170;SDS011;10245;51.344;6.620;2023-03-14T02:14:37;7.50;;;1.83;;
20170;SDS011;10245;51.344;6.620;2023-03-14T02:17:17;10.48;;;1.75;;
20170;SDS011;10245;51.344;6.620;2023-03-14T02:20:19;7.15;;;1.92;;
20170;SDS011;10245;51.344;6.620;2023-03-14T02:22:53;7.70;;;2.30;;
20170;SDS011;10245;51.344;6.620;2023-03-14T02:25:20;6.63;;;1.88;;
20170;SDS011;10245;51.344;6.620;2023-03-14T02:27:54;8.38;;;2.00;;
20170;SDS011;10245;51.344;6.620;2023-03-14T02:30:19;6.30;;;2.00;;
20170;SDS011;10245;51.344;6.620;2023-03-14T02:32:45;6.97;;;2.10;;
20170;SDS011;10245;51.344;6.620;2023-03-14T02:35:14;11.57;;;2.22;;
20170;SDS011;10245;51.344;6.620;2023-03-14T02:37:42;12.98;;;2.80;;
20170;SDS011;10245;51.344;6.620;2023-03-14T02:40:11;9.90;;;2.53;;
20170;SDS011;10245;51.344;6.620;2023-03-14T02:42:36;7.45;;;2.35;;
20170;SDS011;10245;51.344;6.620;2023-03-14T02:45:31;9.75;;;2.15;;
20170;SDS011;10245;51.344;6.620;2023-03-14T02:48:01;7.55;;;1.88;;
20170;SDS011;10245;51.344;6.620;2023-03-14T02:50:31;8.60;;;2.20;;
20170;SDS011;10245;51.344;6.620;2023-03-14T02:52:56;10.00;;;2.08;;
20170;SDS011;10245;51.344;6.620;2023-03-14T02:55:20;5.80;;;1.95;;
20170;SDS011;10245;51.344;6.620;2023-03-14T02:57:47;6.80;;;1.88;;
20170;SDS011;10245;51.344;6.620;2023-03-14T03:00:12;7.82;;;2.38;;
20170;SDS011;10245;51.344;6.620;2023-03-14T03:02:37;7.22;;;1.80;;
20170;SDS011;10245;51.344;6.620;2023-03-14T03:05:00;8.27;;;2.10;;
20170;SDS011;10245;51.344;6.620;2023-03-14T03:07:23;6.15;;;1.80;;
20170;SDS011;10245;51.344;6.620;2023-03-14T03:09:49;7.15;;;2.13;;
20170;SDS011;10245;51.344;6.620;2023-03-14T03:12:12;5.35;;;1.67;;
20170;SDS011;10245;51.344;6.620;2023-03-14T03:14:36;7.10;;;1.83;;
20170;SDS011;10245;51.344;6.620;2023-03-14T03:17:01;8.43;;;2.03;;
20170;SDS011;10245;51.344;6.620;2023-03-14T03:19:24;9.32;;;2.35;;
20170;SDS011;10245;51.344;6.620;2023-03-14T03:21:48;6.63;;;1.48;;
20170;SDS011;10245;51.344;6.620;2023-03-14T03:24:11;7.05;;;1.98;;
20170;SDS011;10245;51.344;6.620;2023-03-14T03:26:34;6.78;;;2.30;;
20170;SDS011;10245;51.344;6.620;2023-03-14T03:29:00;8.27;;;2.25;;
20170;SDS011;10245;51.344;6.620;2023-03-14T03:31:24;5.68;;;1.45;;
20170;SDS011;10245;51.344;6.620;2023-03-14T03:33:49;7.20;;;1.85;;
20170;SDS011;10245;51.344;6.620;2023-03-14T03:36:12;6.57;;;2.20;;
20170;SDS011;10245;51.344;6.620;2023-03-14T03:38:36;8.15;;;2.03;;
20170;SDS011;10245;51.344;6.620;2023-03-14T03:41:01;10.63;;;2.35;;
20170;SDS011;10245;51.344;6.620;2023-03-14T03:43:26;7.50;;;1.95;;
20170;SDS011;10245;51.344;6.620;2023-03-14T03:45:51;8.90;;;2.35;;
20170;SDS011;10245;51.344;6.620;2023-03-14T03:48:16;9.73;;;2.50;;
20170;SDS011;10245;51.344;6.620;2023-03-14T03:50:44;8.85;;;2.42;;
20170;SDS011;10245;51.344;6.620;2023-03-14T03:53:11;9.77;;;2.72;;
20170;SDS011;10245;51.344;6.620;2023-03-14T03:55:44;7.32;;;2.47;;
20170;SDS011;10245;51.344;6.620;2023-03-14T03:58:07;7.68;;;2.00;;
20170;SDS011;10245;51.344;6.620;2023-03-14T04:00:30;8.25;;;2.60;;
20170;SDS011;10245;51.344;6.620;2023-03-14T04:02:54;9.98;;;2.17;;
20170;SDS011;10245;51.344;6.620;2023-03-14T04:05:18;8.90;;;1.70;;
20170;SDS011;10245;51.344;6.620;2023-03-14T04:07:49;7.40;;;1.50;;
20170;SDS011;10245;51.344;6.620;2023-03-14T04:10:17;5.90;;;1.88;;
20170;SDS011;10245;51.344;6.620;2023-03-14T04:12:55;6.90;;;1.55;;
20170;SDS011;10245;51.344;6.620;2023-03-14T04:15:21;6.97;;;1.50;;
20170;SDS011;10245;51.344;6.620;2023-03-14T04:17:45;4.32;;;1.50;;
20170;SDS011;10245;51.344;6.620;2023-03-14T04:20:10;7.90;;;2.00;;
20170;SDS011;10245;51.344;6.620;2023-03-14T04:22:35;8.70;;;1.98;;
20170;SDS011;10245;51.344;6.620;2023-03-14T04:25:00;6.35;;;2.05;;
20170;SDS011;10245;51.344;6.620;2023-03-14T04:27:28;7.65;;;1.90;;
20170;SDS011;10245;51.344;6.620;2023-03-14T04:29:52;6.00;;;1.58;;
20170;SDS011;10245;51.344;6.620;2023-03-14T04:32:30;3.67;;;1.30;;
20170;SDS011;10245;51.344;6.620;2023-03-14T04:34:54;2.70;;;1.23;;
20170;SDS011;10245;51.344;6.620;2023-03-14T04:37:18;7.45;;;1.40;;
20170;SDS011;10245;51.344;6.620;2023-03-14T04:39:41;6.55;;;1.85;;
20170;SDS011;10245;51.344;6.620;2023-03-14T04:42:13;5.18;;;1.13;;
20170;SDS011;10245;51.344;6.620;2023-03-14T04:44:36;4.03;;;1.20;;
20170;SDS011;10245;51.344;6.620;2023-03-14T04:47:00;6.38;;;1.20;;
20170;SDS011;10245;51.344;6.620;2023-03-14T04:49:25;4.38;;;1.42;;
20170;SDS011;10245;51.344;6.620;2023-03-14T04:51:48;7.22;;;1.70;;
20170;SDS011;10245;51.344;6.620;2023-03-14T04:54:15;5.15;;;1.13;;
20170;SDS011;10245;51.344;6.620;2023-03-14T04:56:39;4.78;;;1.10;;
20170;SDS011;10245;51.344;6.620;2023-03-14T04:59:04;4.00;;;1.45;;
20170;SDS011;10245;51.344;6.620;2023-03-14T05:01:30;7.18;;;1.20;;
20170;SDS011;10245;51.344;6.620;2023-03-14T05:04:14;4.88;;;1.40;;
20170;SDS011;10245;51.344;6.620;2023-03-14T05:07:07;4.72;;;1.10;;
20170;SDS011;10245;51.344;6.620;2023-03-14T05:10:02;3.83;;;1.13;;
20170;SDS011;10245;51.344;6.620;2023-03-14T05:12:57;2.58;;;0.80;;
20170;SDS011;10245;51.344;6.620;2023-03-14T05:15:48;3.60;;;1.13;;
20170;SDS011;10245;51.344;6.620;2023-03-14T05:18:41;3.28;;;1.27;;
20170;SDS011;10245;51.344;6.620;2023-03-14T05:21:23;3.42;;;1.15;;
20170;SDS011;10245;51.344;6.620;2023-03-14T05:24:07;2.90;;;1.55;;
20170;SDS011;10245;51.344;6.620;2023-03-14T05:26:36;2.80;;;1.33;;
20170;SDS011;10245;51.344;6.620;2023-03-14T05:29:32;5.53;;;1.77;;
20170;SDS011;10245;51.344;6.620;2023-03-14T05:32:15;5.00;;;2.13;;
20170;SDS011;10245;51.344;6.620;2023-03-14T05:35:11;4.65;;;1.40;;
20170;SDS011;10245;51.344;6.620;2023-03-14T05:37:55;3.17;;;1.65;;
20170;SDS011;10245;51.344;6.620;2023-03-14T05:40:31;5.63;;;1.70;;
20170;SDS011;10245;51.344;6.620;2023-03-14T05:43:15;4.38;;;1.35;;
20170;SDS011;10245;51.344;6.620;2023-03-14T05:46:01;3.92;;;1.65;;
20170;SDS011;10245;51.344;6.620;2023-03-14T05:48:26;3.28;;;1.55;;
20170;SDS011;10245;51.344;6.620;2023-03-14T05:51:11;5.55;;;1.60;;
20170;SDS011;10245;51.344;6.620;2023-03-14T05:54:12;3.58;;;1.75;;
20170;SDS011;10245;51.344;6.620;2023-03-14T05:56:54;5.10;;;1.55;;
20170;SDS011;10245;51.344;6.620;2023-03-14T05:59:43;3.65;;;1.13;;
20170;SDS011;10245;51.344;6.620;2023-03-14T06:02:33;3.38;;;1.38;;
20170;SDS011;10245;51.344;6.620;2023-03-14T06:05:08;3.03;;;1.10;;
20170;SDS011;10245;51.344;6.620;2023-03-14T06:07:31;1.42;;;1.00;;
20170;SDS011;10245;51.344;6.620;2023-03-14T06:09:55;4.65;;;0.95;;
20170;SDS011;10245;51.344;6.620;2023-03-14T06:12:19;1.23;;;1.02;;
20170;SDS011;10245;51.344;6.620;2023-03-14T06:14:43;1.55;;;0.98;;
20170;SDS011;10245;51.344;6.620;2023-03-14T06:17:08;1.05;;;0.90;;
20170;SDS011;10245;51.344;6.620;2023-03-14T06:19:40;2.72;;;1.20;;
20170;SDS011;10245;51.344;6.620;2023-03-14T06:22:06;2.08;;;0.95;;
20170;SDS011;10245;51.344;6.620;2023-03-14T06:24:31;1.20;;;1.05;;
20170;SDS011;10245;51.344;6.620;2023-03-14T06:26:55;2.53;;;1.38;;
20170;SDS011;10245;51.344;6.620;2023-03-14T06:29:18;1.80;;;1.00;;
20170;SDS011;10245;51.344;6.620;2023-03-14T06:31:42;2.20;;;1.20;;
20170;SDS011;10245;51.344;6.620;2023-03-14T06:34:09;1.48;;;1.00;;
20170;SDS011;10245;51.344;6.620;2023-03-14T06:36:33;1.48;;;1.00;;
20170;SDS011;10245;51.344;6.620;2023-03-14T06:38:58;1.50;;;0.82;;
20170;SDS011;10245;51.344;6.620;2023-03-14T06:41:24;1.17;;;0.70;;
20170;SDS011;10245;51.344;6.620;2023-03-14T06:43:48;3.47;;;1.10;;
20170;SDS011;10245;51.344;6.620;2023-03-14T06:46:11;4.35;;;1.00;;
20170;SDS011;10245;51.344;6.620;2023-03-14T06:48:37;1.48;;;0.60;;
20170;SDS011;10245;51.344;6.620;2023-03-14T06:51:01;1.17;;;0.70;;
20170;SDS011;10245;51.344;6.620;2023-03-14T06:53:25;1.75;;;0.95;;
20170;SDS011;10245;51.344;6.620;2023-03-14T06:55:50;2.33;;;0.60;;
20170;SDS011;10245;51.344;6.620;2023-03-14T06:58:14;3.95;;;0.73;;
20170;SDS011;10245;51.344;6.620;2023-03-14T07:00:39;0.93;;;0.77;;
20170;SDS011;10245;51.344;6.620;2023-03-14T07:03:04;0.82;;;0.80;;
20170;SDS011;10245;51.344;6.620;2023-03-14T07:05:32;2.10;;;0.82;;
20170;SDS011;10245;51.344;6.620;2023-03-14T07:07:55;1.45;;;0.80;;
20170;SDS011;10245;51.344;6.620;2023-03-14T07:10:19;1.55;;;0.80;;
20170;SDS011;10245;51.344;6.620;2023-03-14T07:12:45;1.00;;;0.80;;
20170;SDS011;10245;51.344;6.620;2023-03-14T07:15:09;1.25;;;0.95;;
20170;SDS011;10245;51.344;6.620;2023-03-14T07:17:40;1.77;;;1.02;;
20170;SDS011;10245;51.344;6.620;2023-03-14T07:20:04;2.40;;;0.90;;
20170;SDS011;10245;51.344;6.620;2023-03-14T07:22:30;1.27;;;0.90;;
20170;SDS011;10245;51.344;6.620;2023-03-14T07:24:53;1.38;;;1.08;;
20170;SDS011;10245;51.344;6.620;2023-03-14T07:27:18;2.08;;;0.80;;
20170;SDS011;10245;51.344;6.620;2023-03-14T07:29:43;1.08;;;0.95;;
20170;SDS011;10245;51.344;6.620;2023-03-14T07:32:07;1.25;;;0.80;;
20170;SDS011;10245;51.344;6.620;2023-03-14T07:34:30;2.45;;;1.02;;
20170;SDS011;10245;51.344;6.620;2023-03-14T07:36:54;1.85;;;1.20;;
20170;SDS011;10245;51.344;6.620;2023-03-14T07:39:18;3.20;;;1.30;;
20170;SDS011;10245;51.344;6.620;2023-03-14T07:42:04;1.30;;;1.20;;
20170;SDS011;10245;51.344;6.620;2023-03-14T07:44:49;2.00;;;1.27;;
20170;SDS011;10245;51.344;6.620;2023-03-14T07:47:12;3.80;;;1.40;;
20170;SDS011;10245;51.344;6.620;2023-03-14T07:49:36;2.78;;;1.48;;
20170;SDS011;10245;51.344;6.620;2023-03-14T07:51:59;3.65;;;1.83;;
20170;SDS011;10245;51.344;6.620;2023-03-14T07:54:22;3.05;;;1.60;;
20170;SDS011;10245;51.344;6.620;2023-03-14T07:56:46;2.80;;;1.67;;
20170;SDS011;10245;51.344;6.620;2023-03-14T07:59:09;2.22;;;1.80;;
20170;SDS011;10245;51.344;6.620;2023-03-14T08:01:35;4.18;;;2.28;;
20170;SDS011;10245;51.344;6.620;2023-03-14T08:03:58;3.58;;;2.17;;
20170;SDS011;10245;51.344;6.620;2023-03-14T08:06:22;3.72;;;2.28;;
20170;SDS011;10245;51.344;6.620;2023-03-14T08:08:45;3.40;;;2.20;;
20170;SDS011;10245;51.344;6.620;2023-03-14T08:11:09;3.40;;;2.20;;
20170;SDS011;10245;51.344;6.620;2023-03-14T08:13:33;2.92;;;2.50;;
20170;SDS011;10245;51.344;6.620;2023-03-14T08:15:56;2.60;;;2.35;;
20170;SDS011;10245;51.344;6.620;2023-03-14T08:18:21;3.20;;;2.08;;
20170;SDS011;10245;51.344;6.620;2023-03-14T08:20:44;3.65;;;2.15;;
20170;SDS011;10245;51.344;6.620;2023-03-14T08:23:08;3.55;;;2.40;;
20170;SDS011;10245;51.344;6.620;2023-03-14T08:25:31;4.28;;;2.53;;
20170;SDS011;10245;51.344;6.620;2023-03-14T08:27:55;3.17;;;2.70;;
20170;SDS011;10245;51.344;6.620;2023-03-14T08:30:19;3.35;;;2.90;;
20170;SDS011;10245;51.344;6.620;2023-03-14T08:32:43;4.70;;;3.08;;
20170;SDS011;10245;51.344;6.620;2023-03-14T08:35:09;4.38;;;2.75;;
20170;SDS011;10245;51.344;6.620;2023-03-14T08:37:33;4.53;;;2.72;;
20170;SDS011;10245;51.344;6.620;2023-03-14T08:39:57;3.33;;;2.55;;
20170;SDS011;10245;51.344;6.620;2023-03-14T08:42:21;3.25;;;2.33;;
20170;SDS011;10245;51.344;6.620;2023-03-14T08:44:44;2.13;;;1.70;;
20170;SDS011;10245;51.344;6.620;2023-03-14T08:47:08;5.22;;;2.00;;
20170;SDS011;10245;51.344;6.620;2023-03-14T08:49:31;2.20;;;2.00;;
20170;SDS011;10245;51.344;6.620;2023-03-14T08:51:56;2.78;;;1.98;;
20170;SDS011;10245;51.344;6.620;2023-03-14T08:54:20;2.55;;;2.20;;
20170;SDS011;10245;51.344;6.620;2023-03-14T08:56:43;3.17;;;2.30;;
20170;SDS011;10245;51.344;6.620;2023-03-14T08:59:07;3.30;;;2.03;;
20170;SDS011;10245;51.344;6.620;2023-03-14T09:01:32;4.35;;;2.10;;
20170;SDS011;10245;51.344;6.620;2023-03-14T09:03:55;2.67;;;2.08;;
20170;SDS011;10245;51.344;6.620;2023-03-14T09:06:19;3.90;;;1.77;;
20170;SDS011;10245;51.344;6.620;2023-03-14T09:08:43;2.70;;;0.90;;
20170;SDS011;10245;51.344;6.620;2023-03-14T09:11:07;1.95;;;0.60;;
20170;SDS011;10245;51.344;6.620;2023-03-14T09:13:31;1.63;;;0.63;;
20170;SDS011;10245;51.344;6.620;2023-03-14T09:15:54;0.93;;;0.60;;
20170;SDS011;10245;51.344;6.620;2023-03-14T09:18:19;1.13;;;0.65;;
20170;SDS011;10245;51.344;6.620;2023-03-14T09:20:42;2.47;;;0.70;;
20170;SDS011;10245;51.344;6.620;2023-03-14T09:23:05;1.05;;;0.88;;
20170;SDS011;10245;51.344;6.620;2023-03-14T09:25:30;1.00;;;0.70;;
20170;SDS011;10245;51.344;6.620;2023-03-14T09:27:54;1.10;;;0.80;;
20170;SDS011;10245;51.344;6.620;2023-03-14T09:30:17;2.88;;;0.95;;
20170;SDS011;10245;51.344;6.620;2023-03-14T09:32:40;1.85;;;0.77;;
20170;SDS011;10245;51.344;6.620;2023-03-14T09:35:04;2.40;;;1.00;;
20170;SDS011;10245;51.344;6.620;2023-03-14T09:37:28;1.60;;;1.00;;
20170;SDS011;10245;51.344;6.620;2023-03-14T09:39:51;2.35;;;1.20;;
20170;SDS011;10245;51.344;6.620;2023-03-14T09:42:17;3.58;;;1.50;;
20170;SDS011;10245;51.344;6.620;2023-03-14T09:44:45;1.85;;;1.67;;
20170;SDS011;10245;51.344;6.620;2023-03-14T09:47:16;2.03;;;1.55;;
20170;SDS011;10245;51.344;6.620;2023-03-14T09:49:41;1.73;;;1.60;;
20170;SDS011;10245;51.344;6.620;2023-03-14T09:52:06;2.20;;;1.80;;
20170;SDS011;10245;51.344;6.620;2023-03-14T09:54:36;3.92;;;1.92;;
20170;SDS011;10245;51.344;6.620;2023-03-14T09:57:03;3.35;;;2.25;;
20170;SDS011;10245;51.344;6.620;2023-03-14T09:59:30;2.53;;;2.30;;
20170;SDS011;10245;51.344;6.620;2023-03-14T10:01:55;2.60;;;2.17;;
20170;SDS011;10245;51.344;6.620;2023-03-14T10:04:21;3.47;;;2.63;;
20170;SDS011;10245;51.344;6.620;2023-03-14T10:06:45;2.58;;;2.38;;
20170;SDS011;10245;51.344;6.620;2023-03-14T10:09:10;3.38;;;2.22;;
20170;SDS011;10245;51.344;6.620;2023-03-14T10:11:46;3.85;;;2.80;;
20170;SDS011;10245;51.344;6.620;2023-03-14T10:14:10;2.75;;;2.20;;
20170;SDS011;10245;51.344;6.620;2023-03-14T10:16:36;3.90;;;2.10;;
20170;SDS011;10245;51.344;6.620;2023-03-14T10:19:05;3.95;;;1.73;;
20170;SDS011;10245;51.344;6.620;2023-03-14T10:21:35;4.53;;;2.10;;
20170;SDS011;10245;51.344;6.620;2023-03-14T10:24:09;4.40;;;1.58;;
20170;SDS011;10245;51.344;6.620;2023-03-14T10:26:42;2.45;;;1.63;;
20170;SDS011;10245;51.344;6.620;2023-03-14T10:29:08;4.40;;;2.10;;
20170;SDS011;10245;51.344;6.620;2023-03-14T10:31:45;2.75;;;2.15;;
20170;SDS011;10245;51.344;6.620;2023-03-14T10:34:16;3.33;;;2.13;;
20170;SDS011;10245;51.344;6.620;2023-03-14T10:36:44;3.70;;;1.90;;
20170;SDS011;10245;51.344;6.620;2023-03-14T10:39:21;4.70;;;2.03;;
20170;SDS011;10245;51.344;6.620;2023-03-14T10:41:50;3.08;;;1.48;;
20170;SDS011;10245;51.344;6.620;2023-03-14T10:44:21;2.85;;;1.50;;
20170;SDS011;10245;51.344;6.620;2023-03-14T10:46:50;2.67;;;1.50;;
20170;SDS011;10245;51.344;6.620;2023-03-14T10:49:25;3.92;;;1.40;;
20170;SDS011;10245;51.344;6.620;2023-03-14T10:51:51;5.32;;;1.25;;
20170;SDS011;10245;51.344;6.620;2023-03-14T10:54:19;4.65;;;1.40;;
20170;SDS011;10245;51.344;6.620;2023-03-14T10:56:45;2.80;;;1.67;;
20170;SDS011;10245;51.344;6.620;2023-03-14T10:59:19;3.67;;;1.40;;
20170;SDS011;10245;51.344;6.620;2023-03-14T11:01:44;4.82;;;1.38;;
20170;SDS011;10245;51.344;6.620;2023-03-14T11:04:21;6.55;;;1.65;;
20170;SDS011;10245;51.344;6.620;2023-03-14T11:07:06;7.70;;;1.55;;
20170;SDS011;10245;51.344;6.620;2023-03-14T11:09:36;3.47;;;1.30;;
20170;SDS011;10245;51.344;6.620;2023-03-14T11:12:12;3.30;;;1.02;;
20170;SDS011;10245;51.344;6.620;2023-03-14T11:14:53;4.22;;;1.20;;
20170;SDS011;10245;51.344;6.620;2023-03-14T11:17:24;3.00;;;1.55;;
20170;SDS011;10245;51.344;6.620;2023-03-14T11:19:58;2.67;;;1.30;;
20170;SDS011;10245;51.344;6.620;2023-03-14T11:22:40;2.75;;;1.13;;
20170;SDS011;10245;51.344;6.620;2023-03-14T11:25:14;1.95;;;0.85;;
20170;SDS011;10245;51.344;6.620;2023-03-14T11:27:45;1.50;;;0.95;;
20170;SDS011;10245;51.344;6.620;2023-03-14T11:30:19;2.15;;;1.35;;
20170;SDS011;10245;51.344;6.620;2023-03-14T11:32:56;4.82;;;0.90;;
20170;SDS011;10245;51.344;6.620;2023-03-14T11:35:26;2.85;;;0.90;;
20170;SDS011;10245;51.344;6.620;2023-03-14T11:37:54;3.88;;;1.17;;
20170;SDS011;10245;51.344;6.620;2023-03-14T11:40:27;4.45;;;1.02;;
20170;SDS011;10245;51.344;6.620;2023-03-14T11:42:54;2.72;;;0.90;;
20170;SDS011;10245;51.344;6.620;2023-03-14T11:45:25;3.63;;;0.95;;
20170;SDS011;10245;51.344;6.620;2023-03-14T11:47:59;3.83;;;1.20;;
20170;SDS011;10245;51.344;6.620;2023-03-14T11:50:36;2.92;;;1.08;;
20170;SDS011;10245;51.344;6.620;2023-03-14T11:53:03;7.45;;;1.67;;
20170;SDS011;10245;51.344;6.620;2023-03-14T11:55:32;6.97;;;1.38;;
20170;SDS011;10245;51.344;6.620;2023-03-14T11:58:01;3.15;;;1.60;;
20170;SDS011;10245;51.344;6.620;2023-03-14T12:00:34;5.38;;;1.25;;
20170;SDS011;10245;51.344;6.620;2023-03-14T12:03:02;4.55;;;1.42;;
20170;SDS011;10245;51.344;6.620;2023-03-14T12:05:38;8.50;;;1.65;;
20170;SDS011;10245;51.344;6.620;2023-03-14T12:11:04;5.15;;;1.52;;
20170;SDS011;10245;51.344;6.620;2023-03-14T12:13:36;7.65;;;2.40;;
20170;SDS011;10245;51.344;6.620;2023-03-14T12:16:04;5.93;;;1.50;;
20170;SDS011;10245;51.344;6.620;2023-03-14T12:18:32;4.80;;;1.50;;
20170;SDS011;10245;51.344;6.620;2023-03-14T12:21:00;9.45;;;2.63;;
20170;SDS011;10245;51.344;6.620;2023-03-14T12:23:27;6.28;;;1.88;;
20170;SDS011;10245;51.344;6.620;2023-03-14T12:26:07;5.65;;;1.38;;
20170;SDS011;10245;51.344;6.620;2023-03-14T12:28:38;7.18;;;1.90;;
20170;SDS011;10245;51.344;6.620;2023-03-14T12:37:05;4.55;;;1.45;;
20170;SDS011;10245;51.344;6.620;2023-03-14T12:39:40;8.00;;;1.65;;
20170;SDS011;10245;51.344;6.620;2023-03-14T12:42:12;6.22;;;1.50;;
20170;SDS011;10245;51.344;6.620;2023-03-14T12:44:44;5.88;;;1.55;;
20170;SDS011;10245;51.344;6.620;2023-03-14T12:50:15;11.85;;;2.10;;
20170;SDS011;10245;51.344;6.620;2023-03-14T12:52:51;10.25;;;2.03;;
20170;SDS011;10245;51.344;6.620;2023-03-14T12:55:57;11.65;;;2.60;;
20170;SDS011;10245;51.344;6.620;2023-03-14T12:58:31;15.13;;;3.08;;
20170;SDS011;10245;51.344;6.620;2023-03-14T13:00:59;15.23;;;3.65;;
20170;SDS011;10245;51.344;6.620;2023-03-14T13:03:25;12.52;;;2.95;;
20170;SDS011;10245;51.344;6.620;2023-03-14T13:06:02;16.35;;;3.17;;
20170;SDS011;10245;51.344;6.620;2023-03-14T13:08:35;15.15;;;2.95;;
20170;SDS011;10245;51.344;6.620;2023-03-14T13:11:01;18.73;;;3.40;;
20170;SDS011;10245;51.344;6.620;2023-03-14T13:13:28;14.00;;;3.22;;
20170;SDS011;10245;51.344;6.620;2023-03-14T13:15:53;18.90;;;3.55;;
20170;SDS011;10245;51.344;6.620;2023-03-14T13:18:24;15.77;;;3.10;;
20170;SDS011;10245;51.344;6.620;2023-03-14T13:20:53;11.90;;;2.80;;
20170;SDS011;10245;51.344;6.620;2023-03-14T13:23:23;16.70;;;3.42;;
20170;SDS011;10245;51.344;6.620;2023-03-14T13:25:49;14.80;;;3.50;;
20170;SDS011;10245;51.344;6.620;2023-03-14T13:28:13;16.60;;;3.55;;
20170;SDS011;10245;51.344;6.620;2023-03-14T13:30:40;17.73;;;3.42;;
20170;SDS011;10245;51.344;6.620;2023-03-14T13:33:06;20.25;;;4.47;;
20170;SDS011;10245;51.344;6.620;2023-03-14T13:35:39;20.42;;;4.57;;
20170;SDS011;10245;51.344;6.620;2023-03-14T13:38:05;20.55;;;4.45;;
20170;SDS011;10245;51.344;6.620;2023-03-14T13:40:39;22.00;;;4.57;;
20170;SDS011;10245;51.344;6.620;2023-03-14T13:43:14;19.42;;;4.00;;
20170;SDS011;10245;51.344;6.620;2023-03-14T13:45:43;18.85;;;3.45;;
20170;SDS011;10245;51.344;6.620;2023-03-14T13:48:15;17.75;;;4.72;;
20170;SDS011;10245;51.344;6.620;2023-03-14T13:50:39;19.25;;;4.10;;
20170;SDS011;10245;51.344;6.620;2023-03-14T13:53:18;16.50;;;4.13;;
20170;SDS011;10245;51.344;6.620;2023-03-14T13:55:43;16.60;;;4.45;;
20170;SDS011;10245;51.344;6.620;2023-03-14T13:58:10;17.33;;;4.30;;
20170;SDS011;10245;51.344;6.620;2023-03-14T14:00:43;20.92;;;4.32;;
20170;SDS011;10245;51.344;6.620;2023-03-14T14:03:19;15.57;;;3.60;;
20170;SDS011;10245;51.344;6.620;2023-03-14T14:05:43;13.82;;;2.97;;
20170;SDS011;10245;51.344;6.620;2023-03-14T14:08:10;17.75;;;4.35;;
20170;SDS011;10245;51.344;6.620;2023-03-14T14:10:35;16.85;;;3.45;;
20170;SDS011;10245;51.344;6.620;2023-03-14T14:13:02;17.45;;;3.90;;
20170;SDS011;10245;51.344;6.620;2023-03-14T14:15:30;10.23;;;2.78;;
20170;SDS011;10245;51.344;6.620;2023-03-14T14:17:56;19.15;;;3.33;;
20170;SDS011;10245;51.344;6.620;2023-03-14T14:20:26;9.82;;;2.60;;
20170;SDS011;10245;51.344;6.620;2023-03-14T14:22:56;16.73;;;3.40;;
20170;SDS011;10245;51.344;6.620;2023-03-14T14:25:20;8.82;;;2.30;;
20170;SDS011;10245;51.344;6.620;2023-03-14T14:27:46;10.40;;;3.35;;
20170;SDS011;10245;51.344;6.620;2023-03-14T14:30:27;14.75;;;3.13;;
20170;SDS011;10245;51.344;6.620;2023-03-14T14:33:06;14.95;;;2.80;;
20170;SDS011;10245;51.344;6.620;2023-03-14T14:35:39;13.57;;;2.63;;
20170;SDS011;10245;51.344;6.620;2023-03-14T14:38:08;9.77;;;2.22;;
20170;SDS011;10245;51.344;6.620;2023-03-14T14:40:35;8.93;;;2.50;;
20170;SDS011;10245;51.344;6.620;2023-03-14T14:43:10;13.45;;;2.88;;
20170;SDS011;10245;51.344;6.620;2023-03-14T14:45:40;12.35;;;2.58;;
20170;SDS011;10245;51.344;6.620;2023-03-14T14:48:06;10.60;;;3.13;;
20170;SDS011;10245;51.344;6.620;2023-03-14T14:50:33;8.77;;;2.60;;
20170;SDS011;10245;51.344;6.620;2023-03-14T14:53:01;11.27;;;2.25;;
20170;SDS011;10245;51.344;6.620;2023-03-14T14:55:39;8.25;;;2.00;;
20170;SDS011;10245;51.344;6.620;2023-03-14T14:58:16;7.68;;;2.38;;
20170;SDS011;10245;51.344;6.620;2023-03-14T15:00:51;7.28;;;1.77;;
20170;SDS011;10245;51.344;6.620;2023-03-14T15:03:19;8.98;;;2.15;;
20170;SDS011;10245;51.344;6.620;2023-03-14T15:05:43;8.55;;;2.40;;
20170;SDS011;10245;51.344;6.620;2023-03-14T15:08:08;10.40;;;2.03;;